createdAt,value
2018-07-04T00:02:00.334Z,3.50
2018-07-04T00:04:33.881Z,8.83
2018-07-04T00:07:13.682Z,8.53
2018-07-04T00:09:47.481Z,5.73
2018-07-04T00:12:27.145Z,7.67
2018-07-04T00:15:06.838Z,5.77
2018-07-04T00:17:46.279Z,5.67
2018-07-04T00:20:31.248Z,8.47
2018-07-04T00:23:11.117Z,4.73
2018-07-04T00:25:50.739Z,7.33
2018-07-04T00:28:30.578Z,6.07
2018-07-04T00:31:10.140Z,8.50
2018-07-04T00:33:49.678Z,7.53
2018-07-04T00:36:29.206Z,3.43
2018-07-04T00:39:08.977Z,7.33
2018-07-04T00:41:49.635Z,4.87
2018-07-04T00:44:29.730Z,9.67
2018-07-04T00:47:09.511Z,10.20
2018-07-04T00:49:49.145Z,10.10
2018-07-04T00:52:28.731Z,4.77
2018-07-04T00:55:08.467Z,7.37
2018-07-04T00:57:48.469Z,6.97
2018-07-04T01:00:28.007Z,5.60
2018-07-04T01:03:01.625Z,8.07
2018-07-04T01:05:41.309Z,7.17
2018-07-04T01:08:21.026Z,8.80
2018-07-04T01:11:00.573Z,6.73
2018-07-04T01:13:40.212Z,7.03
2018-07-04T01:16:19.707Z,8.03
2018-07-04T01:18:53.728Z,6.20
2018-07-04T01:21:33.309Z,8.70
2018-07-04T01:24:12.984Z,6.27
2018-07-04T01:26:52.516Z,4.93
2018-07-04T01:29:31.952Z,8.37
2018-07-04T01:32:11.528Z,6.03
2018-07-04T01:34:51.045Z,9.80
2018-07-04T01:37:30.548Z,8.93
2018-07-04T01:40:10.242Z,7.57
2018-07-04T01:42:49.806Z,7.57
2018-07-04T01:45:29.462Z,7.07
2018-07-04T01:48:09.048Z,7.20
2018-07-04T01:50:48.617Z,4.70
2018-07-04T01:53:28.228Z,7.80
2018-07-04T01:56:07.840Z,5.37
2018-07-04T01:58:47.526Z,6.57
2018-07-04T02:01:27.205Z,5.90
2018-07-04T02:04:06.883Z,6.43
2018-07-04T02:06:46.583Z,7.83
2018-07-04T02:09:26.236Z,5.60
2018-07-04T02:12:05.895Z,4.63
2018-07-04T02:14:45.463Z,7.63
2018-07-04T02:17:25.051Z,8.83
2018-07-04T02:20:04.604Z,7.07
2018-07-04T02:22:44.203Z,6.93
2018-07-04T02:25:23.673Z,6.17
2018-07-04T02:28:03.295Z,8.37
2018-07-04T02:30:42.906Z,4.57
2018-07-04T02:33:22.500Z,5.43
2018-07-04T02:36:02.127Z,8.20
2018-07-04T02:38:41.724Z,6.67
2018-07-04T02:41:21.258Z,7.00
2018-07-04T02:44:00.826Z,6.30
2018-07-04T02:46:40.761Z,8.10
2018-07-04T02:49:21.446Z,9.33
2018-07-04T02:52:01.148Z,6.90
2018-07-04T02:54:40.886Z,8.47
2018-07-04T02:57:20.357Z,8.17
2018-07-04T03:00:00.097Z,10.70
2018-07-04T03:02:39.638Z,7.77
2018-07-04T03:05:19.226Z,11.60
2018-07-04T03:07:58.833Z,5.63
2018-07-04T03:10:38.438Z,6.87
2018-07-04T03:13:18.160Z,9.20
2018-07-04T03:15:57.817Z,7.17
2018-07-04T03:18:37.397Z,6.93
2018-07-04T03:21:17.097Z,10.70
2018-07-04T03:23:56.680Z,7.63
2018-07-04T03:26:36.178Z,8.43
2018-07-04T03:29:15.890Z,5.90
2018-07-04T03:31:55.397Z,8.50
2018-07-04T03:34:34.989Z,5.73
2018-07-04T03:37:14.725Z,8.57
2018-07-04T03:39:54.405Z,6.43
2018-07-04T03:42:34.181Z,6.80
2018-07-04T03:45:13.921Z,7.27
2018-07-04T03:47:53.430Z,8.40
2018-07-04T03:50:33.093Z,7.13
2018-07-04T03:53:12.645Z,7.63
2018-07-04T03:55:52.234Z,6.80
2018-07-04T03:58:31.962Z,7.53
2018-07-04T04:01:11.623Z,6.07
2018-07-04T04:03:51.145Z,8.13
2018-07-04T04:06:30.710Z,7.73
2018-07-04T04:09:10.381Z,7.57
2018-07-04T04:11:50.063Z,5.70
2018-07-04T04:14:29.778Z,7.00
2018-07-04T04:17:09.517Z,6.67
2018-07-04T04:19:49.077Z,7.10
2018-07-04T04:22:28.757Z,6.90
2018-07-04T04:25:08.342Z,8.40
2018-07-04T04:27:47.970Z,9.87
2018-07-04T04:30:27.606Z,8.47
2018-07-04T04:33:07.297Z,7.90
2018-07-04T04:35:46.978Z,8.20
2018-07-04T04:38:26.620Z,7.57
2018-07-04T04:41:06.152Z,9.97
2018-07-04T04:43:45.698Z,11.80
2018-07-04T04:46:25.360Z,10.30
2018-07-04T04:49:04.903Z,8.97
2018-07-04T04:51:44.602Z,6.10
2018-07-04T04:54:24.259Z,9.33
2018-07-04T04:57:03.897Z,11.37
2018-07-04T04:59:43.508Z,9.90
2018-07-04T05:02:23.168Z,9.90
2018-07-04T05:05:02.869Z,6.27
2018-07-04T05:07:43.399Z,11.37
2018-07-04T05:10:23.422Z,12.40
2018-07-04T05:13:02.910Z,11.23
2018-07-04T05:15:42.524Z,8.10
2018-07-04T05:18:22.273Z,8.23
2018-07-04T05:21:02.036Z,11.93
2018-07-04T05:23:41.509Z,10.00
2018-07-04T05:26:21.239Z,9.67
2018-07-04T05:29:00.905Z,11.03
2018-07-04T05:31:40.433Z,7.60
2018-07-04T05:34:19.868Z,12.63
2018-07-04T05:36:59.447Z,12.97
2018-07-04T05:39:39.197Z,13.07
2018-07-04T05:42:18.737Z,9.53
2018-07-04T05:44:52.829Z,15.03
2018-07-04T05:47:32.572Z,11.67
2018-07-04T05:50:12.421Z,10.23
2018-07-04T05:52:52.273Z,14.23
2018-07-04T05:55:32.443Z,13.03
2018-07-04T05:58:12.100Z,11.37
2018-07-04T06:00:51.714Z,8.00
2018-07-04T06:03:31.454Z,11.67
2018-07-04T06:06:11.164Z,11.13
2018-07-04T06:08:50.741Z,14.13
2018-07-04T06:11:30.295Z,6.87
2018-07-04T06:14:09.976Z,8.77
2018-07-04T06:16:49.661Z,8.90
2018-07-04T06:19:29.152Z,11.83
2018-07-04T06:22:08.681Z,11.33
2018-07-04T06:24:48.637Z,9.67
2018-07-04T06:27:28.181Z,13.20
2018-07-04T06:30:07.939Z,12.93
2018-07-04T06:32:47.476Z,13.10
2018-07-04T06:35:27.005Z,12.63
2018-07-04T06:37:54.291Z,13.03
2018-07-04T06:40:21.578Z,13.47
2018-07-04T06:42:48.910Z,11.40
2018-07-04T06:45:16.202Z,13.93
2018-07-04T06:47:43.539Z,14.63
2018-07-04T06:50:10.912Z,9.60
2018-07-04T06:52:38.236Z,16.40
2018-07-04T06:55:06.307Z,12.60
2018-07-04T06:57:33.605Z,12.53
2018-07-04T07:00:00.944Z,11.53
2018-07-04T07:02:28.237Z,14.20
2018-07-04T07:05:07.809Z,13.13
2018-07-04T07:07:47.384Z,12.73
2018-07-04T07:10:26.866Z,12.07
2018-07-04T07:13:06.611Z,11.93
2018-07-04T07:15:46.089Z,13.70
2018-07-04T07:18:25.641Z,16.07
2018-07-04T07:21:05.362Z,12.70
2018-07-04T07:23:45.137Z,14.77
2018-07-04T07:26:24.718Z,14.23
2018-07-04T07:29:04.398Z,14.80
2018-07-04T07:31:43.920Z,14.77
2018-07-04T07:34:23.483Z,14.70
2018-07-04T07:37:03.019Z,13.47
2018-07-04T07:39:42.621Z,12.60
2018-07-04T07:42:22.229Z,12.23
2018-07-04T07:45:01.836Z,15.93
2018-07-04T07:47:41.369Z,8.43
2018-07-04T07:50:20.984Z,9.80
2018-07-04T07:53:00.647Z,15.70
2018-07-04T07:55:40.248Z,6.27
2018-07-04T07:58:19.790Z,13.13
2018-07-04T08:00:59.398Z,17.37
2018-07-04T08:03:32.933Z,18.60
2018-07-04T08:06:12.550Z,11.70
2018-07-04T08:08:54.648Z,19.83
2018-07-04T08:11:34.307Z,13.43
2018-07-04T08:14:13.981Z,15.13
2018-07-04T08:16:53.525Z,8.83
2018-07-04T08:19:33.317Z,11.80
2018-07-04T08:22:12.835Z,15.77
2018-07-04T08:24:52.321Z,9.87
2018-07-04T08:27:32.813Z,14.53
2018-07-04T08:30:13.711Z,10.73
2018-07-04T08:32:53.297Z,12.27
2018-07-04T08:35:33.286Z,17.93
2018-07-04T08:38:13.464Z,17.23
2018-07-04T08:40:53.018Z,13.80
2018-07-04T08:43:32.553Z,11.30
2018-07-04T08:46:12.940Z,14.37
2018-07-04T08:48:52.470Z,12.40
2018-07-04T08:51:32.199Z,9.40
2018-07-04T08:54:11.990Z,13.10
2018-07-04T08:56:52.632Z,22.07
2018-07-04T08:59:33.357Z,16.80
2018-07-04T09:02:13.030Z,17.20
2018-07-04T09:04:53.360Z,16.37
2018-07-04T09:07:33.046Z,17.47
2018-07-04T09:10:12.649Z,15.87
2018-07-04T09:12:52.295Z,19.83
2018-07-04T09:15:31.869Z,16.03
2018-07-04T09:18:11.682Z,14.53
2018-07-04T09:20:51.801Z,17.30
2018-07-04T09:23:25.312Z,21.50
2018-07-04T09:26:04.752Z,18.00
2018-07-04T09:28:44.503Z,16.63
2018-07-04T09:31:24.095Z,16.83
2018-07-04T09:34:03.726Z,15.57
2018-07-04T09:36:43.270Z,17.83
2018-07-04T09:39:22.941Z,19.10
2018-07-04T09:42:02.717Z,18.33
2018-07-04T09:44:42.309Z,11.63
2018-07-04T09:47:22.029Z,9.77
2018-07-04T09:50:01.534Z,21.03
2018-07-04T09:52:41.269Z,17.80
2018-07-04T09:55:20.854Z,17.23
2018-07-04T09:58:00.454Z,21.47
2018-07-04T10:00:45.496Z,18.03
2018-07-04T10:03:25.118Z,17.17
2018-07-04T10:06:05.760Z,17.23
2018-07-04T10:08:45.359Z,24.70
2018-07-04T10:11:25.041Z,12.23
2018-07-04T10:14:04.607Z,19.30
2018-07-04T10:16:38.076Z,22.00
2018-07-04T10:19:17.851Z,23.17
2018-07-04T10:21:57.985Z,13.67
2018-07-04T10:24:37.626Z,18.57
2018-07-04T10:27:17.302Z,19.80
2018-07-04T10:29:56.970Z,18.87
2018-07-04T10:32:36.695Z,19.60
2018-07-04T10:35:16.534Z,18.90
2018-07-04T10:37:56.185Z,22.13
2018-07-04T10:40:30.025Z,20.20
2018-07-04T10:43:09.668Z,17.50
2018-07-04T10:45:49.228Z,17.07
2018-07-04T10:48:28.770Z,23.53
2018-07-04T10:51:08.533Z,20.87
2018-07-04T10:53:48.145Z,23.50
2018-07-04T10:56:27.842Z,24.67
2018-07-04T10:59:07.589Z,21.03
2018-07-04T11:01:47.285Z,15.83
2018-07-04T11:04:26.856Z,16.40
2018-07-04T11:07:06.438Z,21.73
2018-07-04T11:09:46.246Z,19.13
2018-07-04T11:12:25.826Z,20.37
2018-07-04T11:14:59.425Z,20.37
2018-07-04T11:17:32.926Z,19.27
2018-07-04T11:20:12.559Z,22.07
2018-07-04T11:22:52.321Z,21.80
2018-07-04T11:25:31.805Z,21.77
2018-07-04T11:28:11.414Z,18.20
2018-07-04T11:30:51.122Z,16.40
2018-07-04T11:33:30.717Z,18.67
2018-07-04T11:36:10.309Z,16.57
2018-07-04T11:38:50.073Z,16.90
2018-07-04T11:41:29.798Z,18.33
2018-07-04T11:44:09.443Z,21.07
2018-07-04T11:46:37.413Z,18.47
2018-07-04T11:49:04.787Z,16.07
2018-07-04T11:51:32.118Z,18.77
2018-07-04T11:53:59.401Z,22.53
2018-07-04T11:56:26.713Z,24.90
2018-07-04T11:58:54.035Z,19.23
2018-07-04T12:01:21.324Z,19.87
2018-07-04T12:04:00.985Z,13.10
2018-07-04T12:06:40.494Z,15.17
2018-07-04T12:09:07.854Z,20.17
2018-07-04T12:11:35.181Z,14.27
2018-07-04T12:14:02.508Z,18.53
2018-07-04T12:16:29.941Z,17.37
2018-07-04T12:18:57.290Z,14.93
2018-07-04T12:21:24.627Z,17.67
2018-07-04T12:23:51.951Z,17.50
2018-07-04T12:26:19.248Z,15.70
2018-07-04T12:28:46.561Z,16.80
2018-07-04T12:31:14.101Z,19.80
2018-07-04T12:33:41.442Z,17.47
2018-07-04T12:36:08.742Z,18.90
2018-07-04T12:38:36.057Z,19.33
2018-07-04T12:41:03.361Z,22.27
2018-07-04T12:43:30.795Z,18.47
2018-07-04T12:45:58.141Z,21.60
2018-07-04T12:48:25.453Z,15.40
2018-07-04T12:50:52.799Z,26.27
2018-07-04T12:53:20.107Z,13.87
2018-07-04T12:55:59.673Z,16.93
2018-07-04T12:58:39.269Z,19.20
2018-07-04T13:01:18.829Z,18.77
2018-07-04T13:03:58.609Z,18.93
2018-07-04T13:06:32.374Z,21.97
2018-07-04T13:09:12.129Z,20.77
2018-07-04T13:11:51.626Z,17.90
2018-07-04T13:14:31.212Z,19.57
2018-07-04T13:17:10.946Z,18.43
2018-07-04T13:19:50.396Z,19.80
2018-07-04T13:22:29.978Z,18.67
2018-07-04T13:25:09.590Z,22.97
2018-07-04T13:27:49.029Z,13.70
2018-07-04T13:30:28.673Z,17.83
2018-07-04T13:33:08.360Z,13.70
2018-07-04T13:35:48.162Z,15.00
2018-07-04T13:38:27.702Z,14.20
2018-07-04T13:41:07.263Z,14.97
2018-07-04T13:43:46.734Z,9.57
2018-07-04T13:46:26.326Z,14.33
2018-07-04T13:49:05.871Z,16.77
2018-07-04T13:51:45.438Z,20.43
2018-07-04T13:54:19.161Z,13.10
2018-07-04T13:56:58.681Z,13.80
2018-07-04T13:59:38.258Z,12.73
2018-07-04T14:02:17.817Z,18.70
2018-07-04T14:04:57.410Z,17.53
2018-07-04T14:07:37.106Z,11.40
2018-07-04T14:10:16.859Z,12.47
2018-07-04T14:12:56.466Z,7.90
2018-07-04T14:15:36.107Z,10.87
2018-07-04T14:18:15.857Z,14.93
2018-07-04T14:20:55.569Z,13.20
2018-07-04T14:23:35.217Z,13.30
2018-07-04T14:26:15.536Z,12.50
2018-07-04T14:28:55.071Z,10.67
2018-07-04T14:31:34.821Z,9.87
2018-07-04T14:34:14.577Z,12.63
2018-07-04T14:36:54.173Z,12.93
2018-07-04T14:39:33.750Z,13.80
2018-07-04T14:42:13.292Z,16.50
2018-07-04T14:44:52.941Z,12.87
2018-07-04T14:47:32.564Z,12.63
2018-07-04T14:50:12.109Z,10.43
2018-07-04T14:52:51.729Z,12.00
2018-07-04T14:55:31.304Z,11.80
2018-07-04T14:58:10.913Z,9.90
2018-07-04T15:00:50.444Z,9.57
2018-07-04T15:03:30.011Z,12.93
2018-07-04T15:06:09.630Z,10.80
2018-07-04T15:08:49.102Z,8.73
2018-07-04T15:11:28.713Z,11.10
2018-07-04T15:14:08.458Z,16.97
2018-07-04T15:16:48.073Z,8.97
2018-07-04T15:19:28.121Z,11.37
2018-07-04T15:22:07.847Z,14.03
2018-07-04T15:24:47.565Z,10.57
2018-07-04T15:27:27.305Z,15.53
2018-07-04T15:30:06.869Z,8.57
2018-07-04T15:32:46.417Z,10.10
2018-07-04T15:35:26.169Z,10.57
2018-07-04T15:38:05.797Z,11.47
2018-07-04T15:40:39.708Z,13.20
2018-07-04T15:43:19.453Z,11.33
2018-07-04T15:45:59.061Z,13.17
2018-07-04T15:48:38.794Z,8.90
2018-07-04T15:51:18.306Z,11.33
2018-07-04T15:53:57.904Z,11.07
2018-07-04T15:56:37.537Z,7.40
2018-07-04T15:59:17.233Z,16.43
2018-07-04T16:01:56.960Z,6.93
2018-07-04T16:04:36.669Z,9.60
2018-07-04T16:07:16.209Z,10.10
2018-07-04T16:09:55.960Z,17.77
2018-07-04T16:12:35.845Z,10.50
2018-07-04T16:15:15.577Z,10.43
2018-07-04T16:17:55.190Z,6.97
2018-07-04T16:20:34.626Z,12.90
2018-07-04T16:23:14.195Z,14.07
2018-07-04T16:25:53.865Z,6.17
2018-07-04T16:28:27.630Z,11.43
2018-07-04T16:31:07.268Z,13.13
2018-07-04T16:33:46.970Z,9.83
2018-07-04T16:36:20.781Z,10.40
2018-07-04T16:39:00.367Z,8.57
2018-07-04T16:41:40.077Z,11.03
2018-07-04T16:44:13.841Z,11.10
2018-07-04T16:46:53.365Z,9.43
2018-07-04T16:49:33.118Z,9.37
2018-07-04T16:52:12.690Z,11.03
2018-07-04T16:54:52.318Z,9.87
2018-07-04T16:57:31.984Z,9.17
2018-07-04T17:00:11.507Z,7.90
2018-07-04T17:02:51.788Z,11.13
2018-07-04T17:05:31.478Z,10.43
2018-07-04T17:08:11.094Z,8.83
2018-07-04T17:10:50.820Z,8.27
2018-07-04T17:13:30.337Z,6.37
2018-07-04T17:16:10.136Z,6.63
2018-07-04T17:18:49.718Z,8.63
2018-07-04T17:21:29.266Z,6.13
2018-07-04T17:24:08.806Z,8.70
2018-07-04T17:26:48.581Z,7.60
2018-07-04T17:29:28.401Z,7.63
2018-07-04T17:32:08.296Z,7.40
2018-07-04T17:34:47.931Z,9.53
2018-07-04T17:37:27.569Z,12.77
2018-07-04T17:40:07.123Z,9.70
2018-07-04T17:42:46.807Z,7.50
2018-07-04T17:45:26.408Z,10.23
2018-07-04T17:48:05.962Z,8.53
2018-07-04T17:50:46.413Z,6.53
2018-07-04T17:53:25.948Z,9.37
2018-07-04T17:56:05.523Z,8.93
2018-07-04T17:58:45.011Z,9.70
2018-07-04T18:01:24.757Z,11.77
2018-07-04T18:04:04.318Z,9.00
2018-07-04T18:06:44.146Z,6.27
2018-07-04T18:09:23.711Z,4.60
2018-07-04T18:12:03.318Z,8.37
2018-07-04T18:14:42.850Z,9.37
2018-07-04T18:17:22.475Z,7.47
2018-07-04T18:20:02.218Z,5.53
2018-07-04T18:22:41.878Z,9.37
2018-07-04T18:25:21.570Z,7.60
2018-07-04T18:28:01.158Z,8.27
2018-07-04T18:30:40.729Z,7.73
2018-07-04T18:33:20.376Z,7.67
2018-07-04T18:36:00.342Z,9.80
2018-07-04T18:38:39.894Z,9.73
2018-07-04T18:41:19.497Z,6.70
2018-07-04T18:43:59.116Z,10.63
2018-07-04T18:46:38.753Z,6.43
2018-07-04T18:49:18.320Z,9.97
2018-07-04T18:51:57.964Z,11.27
2018-07-04T18:54:37.638Z,7.10
2018-07-04T18:57:17.390Z,9.90
2018-07-04T18:59:56.977Z,8.60
2018-07-04T19:02:36.563Z,6.97
2018-07-04T19:05:16.090Z,7.07
2018-07-04T19:07:55.704Z,9.73
2018-07-04T19:10:29.301Z,7.73
2018-07-04T19:13:09.033Z,9.13
2018-07-04T19:15:48.741Z,7.90
2018-07-04T19:18:28.482Z,6.27
2018-07-04T19:21:08.081Z,7.93
2018-07-04T19:23:47.583Z,8.50
2018-07-04T19:26:27.097Z,8.63
2018-07-04T19:29:06.705Z,8.43
2018-07-04T19:31:46.409Z,6.73
2018-07-04T19:34:26.108Z,6.30
2018-07-04T19:37:05.695Z,8.13
2018-07-04T19:39:45.301Z,7.50
2018-07-04T19:42:25.244Z,10.90
2018-07-04T19:45:04.918Z,4.40
2018-07-04T19:47:44.695Z,5.60
2018-07-04T19:50:24.417Z,7.77
2018-07-04T19:53:04.273Z,5.77
2018-07-04T19:55:44.033Z,6.37
2018-07-04T19:58:23.762Z,5.83
2018-07-04T20:01:03.518Z,5.43
2018-07-04T20:03:43.246Z,7.47
2018-07-04T20:06:22.928Z,7.97
2018-07-04T20:09:02.609Z,4.60
2018-07-04T20:11:42.220Z,6.50
2018-07-04T20:14:21.806Z,3.93
2018-07-04T20:17:01.624Z,8.97
2018-07-04T20:19:41.168Z,6.63
2018-07-04T20:22:20.733Z,11.03
2018-07-04T20:25:00.557Z,7.13
2018-07-04T20:27:40.369Z,5.50
2018-07-04T20:30:20.029Z,4.63
2018-07-04T20:32:59.685Z,7.50
2018-07-04T20:35:39.745Z,4.80
2018-07-04T20:38:19.457Z,7.73
2018-07-04T20:40:59.045Z,6.83
2018-07-04T20:43:38.617Z,7.00
2018-07-04T20:46:18.194Z,7.00
2018-07-04T20:48:57.948Z,5.07
2018-07-04T20:51:37.638Z,7.93
2018-07-04T20:54:17.270Z,8.63
2018-07-04T20:56:50.873Z,11.33
2018-07-04T20:59:30.511Z,10.97
2018-07-04T21:02:09.979Z,9.33
2018-07-04T21:04:49.693Z,9.93
2018-07-04T21:07:29.333Z,7.30
2018-07-04T21:10:09.002Z,5.03
2018-07-04T21:12:48.509Z,6.93
2018-07-04T21:15:28.202Z,11.33
2018-07-04T21:18:07.921Z,7.77
2018-07-04T21:20:47.659Z,6.10
2018-07-04T21:23:27.155Z,9.73
2018-07-04T21:26:06.781Z,7.03
2018-07-04T21:28:46.429Z,5.40
2018-07-04T21:31:26.130Z,7.13
2018-07-04T21:34:05.795Z,7.73
2018-07-04T21:36:45.476Z,7.70
2018-07-04T21:39:25.030Z,7.10
2018-07-04T21:42:04.504Z,10.00
2018-07-04T21:44:44.037Z,8.07
2018-07-04T21:47:23.866Z,6.50
2018-07-04T21:50:03.339Z,9.80
2018-07-04T21:52:42.894Z,7.23
2018-07-04T21:55:22.429Z,7.93
2018-07-04T21:58:01.914Z,4.73
2018-07-04T22:00:41.649Z,9.37
2018-07-04T22:03:21.303Z,7.70
2018-07-04T22:06:00.727Z,7.83
2018-07-04T22:08:40.214Z,4.30
2018-07-04T22:11:19.799Z,6.00
2018-07-04T22:13:59.441Z,5.10
2018-07-04T22:16:39.001Z,5.40
2018-07-04T22:19:12.531Z,5.93
2018-07-04T22:21:52.095Z,6.97
2018-07-04T22:24:31.713Z,6.00
2018-07-04T22:27:11.121Z,4.83
2018-07-04T22:29:50.674Z,10.47
2018-07-04T22:32:30.184Z,6.03
2018-07-04T22:35:09.771Z,7.60
2018-07-04T22:37:49.501Z,6.73
2018-07-04T22:40:29.189Z,6.37
2018-07-04T22:43:08.777Z,5.70
2018-07-04T22:45:42.293Z,5.93
2018-07-04T22:48:21.970Z,6.57
2018-07-04T22:51:01.554Z,6.83
2018-07-04T22:53:41.305Z,6.27
2018-07-04T22:56:20.869Z,3.67
2018-07-04T22:59:00.510Z,5.50
2018-07-04T23:01:34.073Z,6.30
2018-07-04T23:04:14.337Z,7.07
2018-07-04T23:06:53.898Z,6.23
2018-07-04T23:09:33.515Z,6.07
2018-07-04T23:12:13.250Z,7.50
2018-07-04T23:14:52.913Z,6.57
2018-07-04T23:17:32.569Z,4.03
2018-07-04T23:20:12.217Z,6.63
2018-07-04T23:22:51.891Z,7.83
2018-07-04T23:25:31.484Z,5.77
2018-07-04T23:28:11.161Z,6.90
2018-07-04T23:30:50.822Z,6.73
2018-07-04T23:33:30.506Z,6.03
2018-07-04T23:36:09.983Z,3.63
2018-07-04T23:38:49.433Z,5.80
2018-07-04T23:41:29.073Z,9.20
2018-07-04T23:44:02.658Z,5.37
2018-07-04T23:46:42.268Z,6.93
2018-07-04T23:49:21.917Z,2.97
2018-07-04T23:52:01.579Z,4.17
2018-07-04T23:54:41.285Z,6.57
2018-07-04T23:57:20.999Z,4.53
